createdAt,value
2022-10-18T00:00:41.358Z,11.61
2022-10-18T00:03:04.162Z,11.50
2022-10-18T00:05:26.848Z,11.57
2022-10-18T00:07:49.439Z,11.57
2022-10-18T00:10:12.333Z,11.61
2022-10-18T00:12:36.532Z,11.61
2022-10-18T00:14:59.230Z,11.58
2022-10-18T00:17:21.838Z,11.51
2022-10-18T00:19:45.195Z,11.45
2022-10-18T00:22:07.863Z,11.41
2022-10-18T00:24:30.483Z,11.34
2022-10-18T00:26:53.228Z,11.34
2022-10-18T00:29:16.558Z,11.26
2022-10-18T00:31:39.325Z,11.16
2022-10-18T00:34:14.330Z,11.17
2022-10-18T00:36:36.869Z,11.21
2022-10-18T00:38:59.538Z,11.28
2022-10-18T00:41:28.728Z,11.17
2022-10-18T00:44:14.249Z,11.14
2022-10-18T00:46:46.734Z,11.08
2022-10-18T00:49:16.191Z,11.00
2022-10-18T00:51:53.565Z,10.99
2022-10-18T00:54:17.494Z,11.14
2022-10-18T00:56:40.068Z,11.04
2022-10-18T00:59:03.197Z,10.89
2022-10-18T01:01:28.290Z,10.84
2022-10-18T01:03:52.367Z,10.86
2022-10-18T01:06:14.870Z,10.93
2022-10-18T01:09:10.313Z,10.95
2022-10-18T01:12:10.466Z,10.83
2022-10-18T01:14:52.890Z,10.77
2022-10-18T01:17:22.891Z,10.75
2022-10-18T01:20:07.367Z,10.77
2022-10-18T01:22:44.736Z,10.72
2022-10-18T01:25:28.245Z,10.80
2022-10-18T01:28:23.021Z,10.76
2022-10-18T01:31:01.673Z,10.77
2022-10-18T01:33:45.672Z,10.66
2022-10-18T01:36:35.811Z,10.68
2022-10-18T01:39:02.375Z,10.66
2022-10-18T01:41:26.809Z,10.68
2022-10-18T01:43:52.690Z,10.69
2022-10-18T01:46:21.428Z,10.68
2022-10-18T01:48:44.083Z,10.65
2022-10-18T01:51:06.611Z,10.68
2022-10-18T01:53:33.980Z,10.66
2022-10-18T01:56:06.152Z,10.72
2022-10-18T01:58:38.500Z,10.59
2022-10-18T02:03:40.862Z,10.63
2022-10-18T02:06:14.663Z,10.58
2022-10-18T02:08:51.039Z,10.49
2022-10-18T02:11:15.573Z,10.56
2022-10-18T02:13:58.576Z,10.52
2022-10-18T02:16:37.774Z,10.44
2022-10-18T02:19:08.000Z,10.45
2022-10-18T02:21:32.271Z,10.44
2022-10-18T02:23:57.345Z,10.37
2022-10-18T02:26:20.108Z,10.34
2022-10-18T02:28:43.471Z,10.34
2022-10-18T02:31:36.108Z,10.44
2022-10-18T02:34:22.562Z,10.41
2022-10-18T02:36:53.028Z,10.38
2022-10-18T02:39:20.036Z,10.42
2022-10-18T02:41:43.467Z,10.42
2022-10-18T02:44:06.263Z,10.42
2022-10-18T02:46:28.907Z,10.30
2022-10-18T02:48:51.544Z,10.42
2022-10-18T02:51:14.343Z,10.40
2022-10-18T02:53:36.994Z,10.31
2022-10-18T02:55:59.516Z,10.34
2022-10-18T02:58:22.411Z,10.22
2022-10-18T03:00:44.900Z,10.28
2022-10-18T03:03:07.411Z,10.31
2022-10-18T03:05:29.901Z,10.28
2022-10-18T03:07:52.368Z,10.25
2022-10-18T03:10:15.055Z,10.21
2022-10-18T03:12:37.857Z,10.35
2022-10-18T03:15:00.307Z,10.30
2022-10-18T03:17:22.852Z,10.37
2022-10-18T03:19:45.464Z,10.28
2022-10-18T03:22:08.195Z,10.20
2022-10-18T03:24:30.647Z,10.22
2022-10-18T03:26:53.152Z,10.11
2022-10-18T03:29:15.617Z,10.18
2022-10-18T03:31:38.453Z,10.10
2022-10-18T03:34:01.342Z,10.01
2022-10-18T03:36:23.910Z,10.07
2022-10-18T03:38:46.454Z,10.00
2022-10-18T03:41:09.038Z,10.17
2022-10-18T03:43:31.659Z,10.03
2022-10-18T03:45:54.494Z,10.11
2022-10-18T03:48:17.206Z,10.10
2022-10-18T03:50:39.792Z,10.01
2022-10-18T03:53:02.552Z,10.00
2022-10-18T03:55:25.159Z,10.00
2022-10-18T03:57:47.828Z,9.94
2022-10-18T04:00:11.146Z,10.11
2022-10-18T04:02:37.941Z,10.14
2022-10-18T04:05:00.501Z,10.07
2022-10-18T04:07:22.958Z,9.90
2022-10-18T04:09:46.012Z,9.87
2022-10-18T04:12:08.479Z,9.94
2022-10-18T04:14:30.988Z,10.00
2022-10-18T04:16:53.512Z,9.94
2022-10-18T04:19:16.452Z,9.94
2022-10-18T04:21:39.116Z,9.89
2022-10-18T04:24:22.244Z,9.94
2022-10-18T04:27:05.828Z,9.97
2022-10-18T04:29:29.531Z,9.89
2022-10-18T04:31:52.195Z,9.98
2022-10-18T04:34:15.877Z,10.01
2022-10-18T04:36:38.438Z,10.07
2022-10-18T04:39:01.011Z,10.04
2022-10-18T04:41:23.448Z,10.10
2022-10-18T04:46:13.575Z,9.83
2022-10-18T04:48:36.031Z,9.72
2022-10-18T04:50:58.709Z,9.70
2022-10-18T04:53:21.184Z,9.73
2022-10-18T04:55:49.045Z,9.76
2022-10-18T04:58:12.019Z,9.65
2022-10-18T05:00:39.138Z,9.67
2022-10-18T05:03:02.649Z,9.79
2022-10-18T05:05:33.127Z,9.89
2022-10-18T05:08:08.034Z,9.93
2022-10-18T05:10:35.171Z,9.80
2022-10-18T05:12:57.780Z,9.91
2022-10-18T05:15:20.376Z,9.82
2022-10-18T05:17:43.369Z,9.95
2022-10-18T05:20:06.799Z,9.95
2022-10-18T05:22:29.742Z,9.84
2022-10-18T05:24:52.491Z,9.91
2022-10-18T05:27:15.243Z,9.93
2022-10-18T05:29:38.086Z,10.00
2022-10-18T05:32:00.631Z,10.07
2022-10-18T05:34:24.718Z,10.10
2022-10-18T05:36:49.386Z,10.05
2022-10-18T05:39:12.160Z,10.15
2022-10-18T05:41:34.871Z,10.17
2022-10-18T05:43:57.359Z,10.21
2022-10-18T05:46:20.096Z,10.41
2022-10-18T05:48:44.413Z,10.52
2022-10-18T05:51:07.284Z,10.48
2022-10-18T05:53:38.246Z,10.58
2022-10-18T05:56:02.672Z,10.80
2022-10-18T05:58:25.294Z,10.83
2022-10-18T06:00:48.795Z,10.75
2022-10-18T06:03:12.846Z,10.77
2022-10-18T06:05:36.356Z,10.95
2022-10-18T06:07:59.502Z,10.90
2022-10-18T06:10:22.013Z,11.03
2022-10-18T06:12:45.041Z,11.07
2022-10-18T06:15:08.614Z,11.07
2022-10-18T06:17:32.594Z,11.07
2022-10-18T06:19:56.478Z,11.34
2022-10-18T06:22:19.016Z,11.34
2022-10-18T06:24:41.637Z,11.42
2022-10-18T06:27:09.069Z,11.35
2022-10-18T06:29:31.855Z,11.35
2022-10-18T06:31:54.431Z,11.41
2022-10-18T06:34:17.185Z,11.55
2022-10-18T06:36:40.688Z,11.64
2022-10-18T06:39:03.485Z,11.68
2022-10-18T06:41:26.388Z,11.74
2022-10-18T06:43:50.518Z,11.83
2022-10-18T06:46:14.194Z,12.12
2022-10-18T06:48:38.638Z,12.16
2022-10-18T06:51:04.040Z,12.33
2022-10-18T06:53:32.277Z,12.44
2022-10-18T06:56:05.661Z,12.47
2022-10-18T06:58:29.519Z,12.54
2022-10-18T07:00:52.534Z,12.30
2022-10-18T07:03:15.612Z,12.27
2022-10-18T07:05:40.759Z,12.47
2022-10-18T07:08:03.709Z,12.45
2022-10-18T07:10:26.419Z,12.41
2022-10-18T07:12:49.139Z,12.30
2022-10-18T07:15:11.779Z,12.60
2022-10-18T07:17:34.720Z,13.34
2022-10-18T07:19:57.471Z,14.08
2022-10-18T07:22:20.065Z,14.33
2022-10-18T07:24:42.933Z,15.09
2022-10-18T07:27:05.666Z,15.47
2022-10-18T07:29:28.920Z,16.33
2022-10-18T07:31:51.561Z,16.44
2022-10-18T07:34:14.753Z,16.90
2022-10-18T07:36:37.714Z,17.04
2022-10-18T07:39:01.259Z,17.63
2022-10-18T07:41:23.972Z,17.04
2022-10-18T07:43:48.776Z,16.84
2022-10-18T07:46:12.403Z,15.74
2022-10-18T07:48:34.956Z,15.31
2022-10-18T07:51:01.898Z,15.08
2022-10-18T07:53:24.512Z,14.70
2022-10-18T07:55:47.146Z,14.30
2022-10-18T07:58:09.862Z,14.26
2022-10-18T08:00:32.694Z,14.30
2022-10-18T08:02:59.016Z,14.34
2022-10-18T08:05:21.624Z,14.25
2022-10-18T08:07:44.233Z,14.25
2022-10-18T08:10:07.024Z,14.37
2022-10-18T08:12:29.761Z,14.37
2022-10-18T08:14:52.329Z,14.53
2022-10-18T08:17:14.785Z,14.59
2022-10-18T08:19:48.232Z,14.64
2022-10-18T08:22:22.902Z,14.85
2022-10-18T08:24:45.562Z,14.92
2022-10-18T08:27:08.412Z,14.85
2022-10-18T08:29:32.167Z,14.73
2022-10-18T08:31:54.857Z,14.80
2022-10-18T08:34:19.885Z,14.87
2022-10-18T08:36:42.662Z,14.97
2022-10-18T08:39:05.489Z,14.97
2022-10-18T08:41:36.999Z,15.04
2022-10-18T08:44:18.276Z,15.16
2022-10-18T08:46:45.950Z,15.29
2022-10-18T08:49:14.261Z,15.31
2022-10-18T08:51:46.762Z,15.31
2022-10-18T08:54:36.909Z,15.38
2022-10-18T08:57:02.237Z,15.57
2022-10-18T08:59:25.719Z,15.73
2022-10-18T09:02:18.129Z,15.74
2022-10-18T09:05:17.377Z,15.77
2022-10-18T09:08:12.542Z,15.80
2022-10-18T09:10:44.370Z,15.90
2022-10-18T09:13:51.220Z,15.94
2022-10-18T09:16:32.780Z,15.97
2022-10-18T09:19:04.327Z,16.11
2022-10-18T09:21:33.061Z,16.12
2022-10-18T09:24:06.067Z,16.25
2022-10-18T09:26:32.285Z,16.38
2022-10-18T09:29:25.362Z,16.42
2022-10-18T09:32:41.937Z,16.38
2022-10-18T09:35:30.470Z,16.39
2022-10-18T09:37:59.758Z,16.48
2022-10-18T09:40:29.103Z,16.49
2022-10-18T09:43:07.121Z,16.56
2022-10-18T09:45:51.006Z,16.70
2022-10-18T09:48:16.062Z,16.79
2022-10-18T09:50:40.683Z,16.96
2022-10-18T09:53:13.628Z,17.10
2022-10-18T09:55:42.507Z,17.13
2022-10-18T09:58:07.709Z,17.18
2022-10-18T10:00:39.088Z,17.25
2022-10-18T10:03:02.634Z,17.41
2022-10-18T10:05:29.733Z,17.45
2022-10-18T10:07:59.975Z,17.42
2022-10-18T10:10:26.018Z,17.49
2022-10-18T10:13:02.119Z,17.44
2022-10-18T10:15:31.215Z,17.52
2022-10-18T10:18:03.825Z,17.66
2022-10-18T10:20:46.083Z,17.65
2022-10-18T10:23:26.136Z,17.85
2022-10-18T10:25:56.960Z,18.03
2022-10-18T10:28:26.064Z,18.07
2022-10-18T10:30:48.952Z,17.93
2022-10-18T10:33:32.602Z,17.91
2022-10-18T10:35:59.737Z,17.91
2022-10-18T10:38:27.710Z,17.97
2022-10-18T10:40:51.663Z,18.09
2022-10-18T10:43:36.318Z,18.11
2022-10-18T10:46:01.751Z,18.16
2022-10-18T10:48:28.823Z,18.34
2022-10-18T10:51:08.077Z,18.45
2022-10-18T10:53:43.263Z,18.62
2022-10-18T10:56:15.963Z,18.73
2022-10-18T10:58:40.922Z,18.65
2022-10-18T11:01:25.566Z,18.66
2022-10-18T11:03:51.567Z,18.66
2022-10-18T11:06:35.333Z,18.65
2022-10-18T11:09:00.029Z,18.68
2022-10-18T11:11:28.475Z,18.65
2022-10-18T11:14:31.575Z,18.66
2022-10-18T11:17:21.413Z,18.68
2022-10-18T11:20:01.410Z,18.66
2022-10-18T11:22:26.369Z,18.68
2022-10-18T11:24:49.151Z,18.68
2022-10-18T11:27:23.318Z,18.82
2022-10-18T11:29:56.931Z,18.89
2022-10-18T11:32:54.934Z,18.88
2022-10-18T11:35:26.743Z,19.00
2022-10-18T11:38:21.753Z,19.14
2022-10-18T11:40:50.605Z,19.26
2022-10-18T11:43:27.175Z,19.12
2022-10-18T11:46:17.175Z,19.06
2022-10-18T11:48:58.108Z,19.04
2022-10-18T11:52:07.437Z,19.23
2022-10-18T11:54:59.164Z,19.23
2022-10-18T11:57:49.427Z,19.26
2022-10-18T12:00:21.284Z,19.28
2022-10-18T12:03:02.146Z,19.40
2022-10-18T12:05:25.240Z,19.33
2022-10-18T12:07:58.588Z,19.37
2022-10-18T12:10:31.740Z,19.44
2022-10-18T12:13:08.211Z,19.38
2022-10-18T12:15:34.200Z,19.40
2022-10-18T12:18:01.275Z,19.51
2022-10-18T12:20:29.917Z,19.62
2022-10-18T12:23:03.906Z,19.62
2022-10-18T12:25:29.629Z,19.68
2022-10-18T12:30:42.467Z,19.81
2022-10-18T12:33:28.380Z,19.65
2022-10-18T12:36:21.914Z,19.71
2022-10-18T12:38:48.216Z,19.95
2022-10-18T12:41:26.335Z,20.10
2022-10-18T12:43:54.974Z,20.12
2022-10-18T12:46:17.879Z,19.93
2022-10-18T12:48:48.963Z,19.86
2022-10-18T12:51:16.625Z,19.95
2022-10-18T12:53:41.985Z,20.13
2022-10-18T12:56:34.205Z,19.93
2022-10-18T12:59:15.113Z,20.05
2022-10-18T13:02:00.762Z,20.22
2022-10-18T13:04:29.653Z,20.26
2022-10-18T13:06:58.576Z,20.54
2022-10-18T13:09:21.660Z,20.50
2022-10-18T13:11:44.770Z,20.32
2022-10-18T13:14:38.757Z,20.41
2022-10-18T13:17:47.978Z,20.56
2022-10-18T13:20:26.406Z,20.67
2022-10-18T13:22:52.740Z,20.70
2022-10-18T13:25:23.908Z,20.71
2022-10-18T13:27:58.613Z,20.71
2022-10-18T13:30:39.855Z,20.57
2022-10-18T13:33:27.662Z,20.68
2022-10-18T13:35:52.278Z,20.73
2022-10-18T13:38:52.509Z,20.67
2022-10-18T13:41:21.060Z,20.63
2022-10-18T13:43:52.807Z,20.46
2022-10-18T13:46:15.833Z,20.56
2022-10-18T13:48:38.273Z,20.58
2022-10-18T13:51:29.481Z,20.60
2022-10-18T13:54:07.173Z,20.64
2022-10-18T13:56:56.467Z,20.48
2022-10-18T13:59:32.531Z,20.41
2022-10-18T14:02:30.770Z,20.39
2022-10-18T14:05:25.460Z,20.23
2022-10-18T14:07:50.566Z,20.08
2022-10-18T14:11:01.342Z,20.19
2022-10-18T14:13:30.867Z,20.12
2022-10-18T14:16:01.981Z,20.04
2022-10-18T14:18:32.999Z,20.04
2022-10-18T14:21:13.304Z,20.26
2022-10-18T14:23:43.439Z,20.50
2022-10-18T14:26:17.118Z,20.39
2022-10-18T14:28:58.637Z,20.48
2022-10-18T14:31:22.446Z,20.33
2022-10-18T14:33:57.919Z,20.08
2022-10-18T14:36:21.062Z,19.90
2022-10-18T14:38:46.538Z,19.75
2022-10-18T14:41:16.922Z,19.64
2022-10-18T14:43:39.563Z,19.55
2022-10-18T14:46:10.397Z,19.43
2022-10-18T14:48:33.171Z,19.43
2022-10-18T14:51:00.289Z,19.40
2022-10-18T14:53:25.138Z,19.49
2022-10-18T14:56:04.120Z,19.24
2022-10-18T14:58:27.760Z,19.20
2022-10-18T15:00:50.508Z,19.28
2022-10-18T15:03:15.838Z,19.31
2022-10-18T15:06:00.701Z,19.19
2022-10-18T15:08:47.757Z,19.13
2022-10-18T15:11:14.474Z,19.06
2022-10-18T15:13:46.757Z,19.03
2022-10-18T15:16:16.919Z,18.84
2022-10-18T15:18:39.498Z,18.48
2022-10-18T15:21:10.712Z,18.23
2022-10-18T15:23:33.557Z,18.27
2022-10-18T15:26:12.699Z,18.01
2022-10-18T15:28:49.552Z,17.91
2022-10-18T15:31:25.257Z,17.83
2022-10-18T15:33:47.895Z,17.55
2022-10-18T15:36:12.686Z,17.45
2022-10-18T15:38:37.045Z,17.23
2022-10-18T15:40:59.659Z,17.13
2022-10-18T15:43:28.527Z,17.11
2022-10-18T15:45:58.842Z,16.88
2022-10-18T15:48:34.852Z,16.75
2022-10-18T15:51:04.783Z,16.81
2022-10-18T15:53:40.662Z,16.56
2022-10-18T15:56:21.568Z,16.48
2022-10-18T15:58:45.344Z,16.45
2022-10-18T16:01:15.627Z,16.33
2022-10-18T16:03:39.516Z,16.22
2022-10-18T16:06:11.374Z,16.08
2022-10-18T16:08:41.178Z,16.10
2022-10-18T16:11:03.843Z,15.96
2022-10-18T16:13:26.970Z,15.87
2022-10-18T16:15:49.608Z,15.80
2022-10-18T16:18:15.477Z,15.76
2022-10-18T16:20:37.934Z,15.80
2022-10-18T16:23:00.501Z,15.76
2022-10-18T16:25:23.140Z,15.45
2022-10-18T16:27:45.973Z,15.39
2022-10-18T16:30:15.295Z,15.46
2022-10-18T16:32:38.011Z,15.28
2022-10-18T16:35:00.554Z,15.28
2022-10-18T16:37:23.135Z,15.32
2022-10-18T16:39:45.685Z,15.26
2022-10-18T16:42:08.394Z,15.28
2022-10-18T16:44:30.979Z,15.09
2022-10-18T16:46:55.491Z,15.08
2022-10-18T16:49:24.378Z,15.08
2022-10-18T16:51:47.503Z,14.95
2022-10-18T16:54:10.037Z,14.97
2022-10-18T16:56:33.755Z,14.99
2022-10-18T16:58:57.311Z,14.85
2022-10-18T17:01:21.833Z,14.73
2022-10-18T17:03:45.074Z,14.55
2022-10-18T17:06:16.409Z,14.57
2022-10-18T17:08:39.166Z,14.61
2022-10-18T17:11:02.210Z,14.59
2022-10-18T17:13:26.013Z,14.55
2022-10-18T17:15:49.339Z,14.56
2022-10-18T17:18:15.025Z,14.39
2022-10-18T17:20:37.537Z,14.40
2022-10-18T17:23:00.053Z,14.47
2022-10-18T17:25:22.605Z,14.44
2022-10-18T17:27:45.935Z,14.28
2022-10-18T17:30:15.254Z,14.13
2022-10-18T17:32:38.565Z,14.06
2022-10-18T17:35:01.200Z,13.95
2022-10-18T17:37:23.844Z,14.11
2022-10-18T17:39:46.578Z,13.89
2022-10-18T17:42:09.164Z,13.88
2022-10-18T17:44:31.683Z,13.79
2022-10-18T17:46:54.340Z,13.74
2022-10-18T17:49:17.852Z,13.68
2022-10-18T17:51:41.425Z,13.74
2022-10-18T17:54:05.852Z,13.65
2022-10-18T17:56:33.284Z,13.75
2022-10-18T17:58:55.746Z,13.65
2022-10-18T18:01:21.108Z,13.75
2022-10-18T18:03:43.897Z,13.67
2022-10-18T18:06:14.764Z,13.55
2022-10-18T18:08:37.975Z,13.53
2022-10-18T18:11:00.564Z,13.43
2022-10-18T18:13:23.100Z,13.43
2022-10-18T18:15:45.667Z,13.23
2022-10-18T18:18:08.247Z,13.24
2022-10-18T18:20:30.790Z,13.20
2022-10-18T18:22:53.574Z,13.17
2022-10-18T18:25:16.000Z,13.09
2022-10-18T18:27:39.120Z,13.03
2022-10-18T18:30:06.486Z,13.06
2022-10-18T18:32:33.000Z,13.06
2022-10-18T18:34:55.701Z,13.03
2022-10-18T18:37:18.474Z,12.99
2022-10-18T18:39:41.335Z,12.98
2022-10-18T18:42:04.515Z,12.91
2022-10-18T18:44:27.053Z,12.77
2022-10-18T18:46:49.764Z,12.81
2022-10-18T18:49:13.278Z,12.75
2022-10-18T18:51:40.292Z,12.77
2022-10-18T18:54:04.167Z,12.81
2022-10-18T18:56:29.104Z,12.96
2022-10-18T18:58:53.734Z,12.93
2022-10-18T19:01:22.412Z,12.93
2022-10-18T19:03:47.923Z,12.81
2022-10-18T19:06:16.606Z,12.69
2022-10-18T19:08:40.171Z,12.67
2022-10-18T19:11:06.800Z,12.74
2022-10-18T19:13:31.558Z,12.78
2022-10-18T19:16:10.773Z,12.68
2022-10-18T19:18:33.653Z,12.67
2022-10-18T19:20:56.254Z,12.54
2022-10-18T19:23:19.329Z,12.38
2022-10-18T19:25:41.897Z,12.38
2022-10-18T19:28:04.537Z,12.26
2022-10-18T19:30:28.956Z,12.38
2022-10-18T19:33:01.114Z,12.38
2022-10-18T19:35:26.234Z,12.23
2022-10-18T19:37:48.756Z,12.12
2022-10-18T19:40:11.786Z,12.19
2022-10-18T19:42:36.135Z,12.20
2022-10-18T19:44:58.951Z,12.20
2022-10-18T19:47:21.704Z,12.27
2022-10-18T19:49:46.192Z,12.19
2022-10-18T19:52:09.279Z,12.09
2022-10-18T19:54:31.912Z,11.94
2022-10-18T19:56:54.616Z,11.86
2022-10-18T19:59:17.758Z,11.85
2022-10-18T20:01:40.903Z,11.78
2022-10-18T20:04:04.577Z,11.75
2022-10-18T20:06:27.095Z,11.71
2022-10-18T20:08:50.079Z,11.71
2022-10-18T20:11:16.193Z,11.64
2022-10-18T20:13:39.487Z,11.51
2022-10-18T20:16:03.797Z,11.57
2022-10-18T20:18:31.249Z,11.54
2022-10-18T20:20:53.972Z,11.51
2022-10-18T20:23:18.190Z,11.39
2022-10-18T20:25:40.646Z,11.44
2022-10-18T20:28:03.923Z,11.45
2022-10-18T20:30:26.772Z,11.44
2022-10-18T20:32:52.063Z,11.45
2022-10-18T20:35:14.496Z,11.37
2022-10-18T20:37:37.251Z,11.30
2022-10-18T20:40:02.599Z,11.32
2022-10-18T20:42:25.226Z,11.17
2022-10-18T20:44:48.441Z,11.20
2022-10-18T20:47:11.011Z,11.20
2022-10-18T20:49:34.292Z,11.08
2022-10-18T20:51:56.902Z,11.00
2022-10-18T20:54:19.360Z,11.03
2022-10-18T20:56:41.978Z,11.01
2022-10-18T20:59:06.384Z,11.07
2022-10-18T21:01:31.169Z,10.97
2022-10-18T21:04:06.128Z,11.00
2022-10-18T21:06:31.026Z,11.03
2022-10-18T21:09:05.771Z,11.03
2022-10-18T21:11:30.729Z,10.99
2022-10-18T21:13:59.583Z,11.07
2022-10-18T21:16:22.246Z,10.92
2022-10-18T21:18:44.830Z,10.86
2022-10-18T21:23:35.939Z,10.76
2022-10-18T21:25:58.483Z,10.80
2022-10-18T21:28:21.080Z,10.69
2022-10-18T21:30:44.236Z,10.65
2022-10-18T21:33:09.869Z,10.72
2022-10-18T21:35:36.405Z,10.72
2022-10-18T21:37:58.966Z,10.83
2022-10-18T21:40:22.703Z,10.73
2022-10-18T21:42:45.248Z,10.77
2022-10-18T21:45:08.161Z,10.81
2022-10-18T21:47:30.695Z,10.81
2022-10-18T21:49:53.287Z,10.89
2022-10-18T21:52:16.711Z,10.99
2022-10-18T21:54:39.346Z,11.03
2022-10-18T21:57:01.970Z,10.99
2022-10-18T21:59:24.853Z,10.97
2022-10-18T22:01:48.077Z,10.99
2022-10-18T22:04:22.242Z,11.06
2022-10-18T22:06:44.907Z,11.14
2022-10-18T22:09:08.594Z,11.14
2022-10-18T22:11:40.727Z,11.11
2022-10-18T22:14:03.407Z,11.18
2022-10-18T22:16:26.668Z,11.20
2022-10-18T22:18:50.725Z,11.23
2022-10-18T22:21:15.125Z,11.18
2022-10-18T22:23:46.324Z,11.18
2022-10-18T22:26:15.547Z,11.26
2022-10-18T22:28:39.857Z,11.35
2022-10-18T22:31:02.493Z,11.50
2022-10-18T22:33:25.097Z,11.66
2022-10-18T22:35:50.909Z,11.79
2022-10-18T22:38:13.375Z,11.74
2022-10-18T22:40:35.891Z,11.82
2022-10-18T22:42:58.388Z,11.87
2022-10-18T22:45:20.810Z,11.87
2022-10-18T22:47:43.436Z,11.85
2022-10-18T22:50:07.280Z,11.90
2022-10-18T22:52:29.944Z,11.86
2022-10-18T22:54:52.591Z,11.93
2022-10-18T22:57:15.034Z,12.04
2022-10-18T22:59:37.840Z,11.97
2022-10-18T23:02:00.733Z,11.93
2022-10-18T23:04:23.348Z,11.92
2022-10-18T23:06:45.915Z,11.90
2022-10-18T23:09:10.747Z,11.97
2022-10-18T23:11:34.469Z,12.07
2022-10-18T23:13:57.015Z,12.03
2022-10-18T23:16:20.017Z,12.13
2022-10-18T23:18:42.700Z,12.19
2022-10-18T23:21:13.286Z,12.19
2022-10-18T23:23:38.067Z,12.19
2022-10-18T23:26:02.087Z,12.13
2022-10-18T23:28:24.633Z,12.09
2022-10-18T23:30:47.144Z,11.94
2022-10-18T23:33:09.630Z,11.89
2022-10-18T23:35:32.239Z,11.97
2022-10-18T23:37:54.781Z,11.97
2022-10-18T23:40:19.522Z,12.02
2022-10-18T23:42:42.036Z,12.06
2022-10-18T23:45:05.013Z,12.10
2022-10-18T23:47:27.539Z,12.23
2022-10-18T23:49:57.377Z,12.20
2022-10-18T23:52:19.940Z,12.12
2022-10-18T23:57:09.989Z,12.13
2022-10-18T23:59:33.880Z,12.14
